createdAt,value
2022-12-26T00:00:34.670Z,9
2022-12-26T00:01:43.193Z,9.2
2022-12-26T00:02:51.584Z,9.2
2022-12-26T00:04:00.000Z,9.2
2022-12-26T00:05:08.420Z,9.7
2022-12-26T00:06:16.775Z,9.7
2022-12-26T00:07:25.160Z,9.7
2022-12-26T00:08:33.678Z,8.3
2022-12-26T00:09:42.031Z,8.3
2022-12-26T00:10:50.381Z,8.3
2022-12-26T00:11:58.948Z,7.8
2022-12-26T00:13:36.986Z,7.8
2022-12-26T00:14:15.668Z,7.8
2022-12-26T00:15:24.215Z,6.4
2022-12-26T00:16:32.680Z,6.4
2022-12-26T00:17:40.919Z,6.4
2022-12-26T00:18:49.507Z,7.2
2022-12-26T00:19:57.852Z,7.2
2022-12-26T00:21:06.187Z,7.2
2022-12-26T00:22:14.756Z,6.7
2022-12-26T00:23:23.136Z,6.7
2022-12-26T00:24:31.446Z,6.7
2022-12-26T00:25:40.002Z,7.6
2022-12-26T00:26:48.352Z,7.6
2022-12-26T00:27:56.703Z,7.6
2022-12-26T00:29:05.253Z,5.9
2022-12-26T00:30:13.605Z,5.9
2022-12-26T00:31:21.989Z,5.9
2022-12-26T00:32:30.516Z,6.4
2022-12-26T00:33:38.873Z,6.4
2022-12-26T00:34:47.226Z,6.4
2022-12-26T00:35:55.786Z,6.9
2022-12-26T00:37:04.162Z,6.9
2022-12-26T00:38:12.443Z,6.9
2022-12-26T00:39:21.047Z,6.5
2022-12-26T00:40:29.370Z,6.5
2022-12-26T00:41:37.708Z,6.5
2022-12-26T00:42:46.262Z,6.4
2022-12-26T00:43:54.647Z,6.4
2022-12-26T00:45:03.013Z,6.4
2022-12-26T00:46:11.572Z,7.1
2022-12-26T00:47:19.915Z,7.1
2022-12-26T00:48:28.294Z,7.1
2022-12-26T00:50:11.881Z,6.3
2022-12-26T00:50:45.168Z,6.3
2022-12-26T00:51:53.516Z,6.3
2022-12-26T00:53:02.066Z,7.6
2022-12-26T00:54:10.415Z,7.6
2022-12-26T00:55:18.810Z,7.6
2022-12-26T00:56:27.311Z,6.8
2022-12-26T00:57:35.667Z,6.8
2022-12-26T00:58:44.033Z,6.8
2022-12-26T00:59:52.604Z,6.5
2022-12-26T01:01:00.976Z,6.5
2022-12-26T01:02:09.518Z,6.5
2022-12-26T01:03:17.903Z,7
2022-12-26T01:04:26.218Z,7
2022-12-26T01:05:34.560Z,7
2022-12-26T01:06:43.117Z,5.4
2022-12-26T01:08:20.730Z,5.4
2022-12-26T01:08:59.849Z,5.4
2022-12-26T01:10:08.327Z,6.8
2022-12-26T01:11:16.694Z,6.8
2022-12-26T01:12:25.044Z,6.8
2022-12-26T01:13:33.581Z,6.5
2022-12-26T01:14:41.966Z,6.5
2022-12-26T01:15:50.320Z,6.5
2022-12-26T01:16:58.894Z,5.5
2022-12-26T01:18:07.223Z,5.5
2022-12-26T01:19:15.585Z,5.5
2022-12-26T01:20:24.137Z,5.9
2022-12-26T01:21:32.484Z,5.9
2022-12-26T01:22:40.862Z,5.9
2022-12-26T01:23:49.384Z,6.8
2022-12-26T01:24:57.722Z,6.8
2022-12-26T01:26:16.198Z,6.8
2022-12-26T01:27:14.651Z,5.9
2022-12-26T01:28:23.043Z,5.9
2022-12-26T01:29:31.394Z,5.9
2022-12-26T01:30:39.943Z,6.1
2022-12-26T01:31:48.340Z,6.1
2022-12-26T01:32:56.626Z,6.1
2022-12-26T01:34:05.186Z,5
2022-12-26T01:35:13.529Z,5
2022-12-26T01:36:21.876Z,5
2022-12-26T01:37:30.426Z,7.1
2022-12-26T01:38:38.779Z,7.1
2022-12-26T01:39:47.124Z,7.1
2022-12-26T01:40:55.671Z,5.8
2022-12-26T01:42:04.030Z,5.8
2022-12-26T01:43:12.469Z,5.8
2022-12-26T01:44:20.914Z,5.3
2022-12-26T01:45:29.296Z,5.3
2022-12-26T01:46:37.639Z,5.3
2022-12-26T01:47:46.192Z,4.6
2022-12-26T01:48:54.541Z,4.6
2022-12-26T01:50:02.892Z,4.6
2022-12-26T01:51:11.441Z,6.9
2022-12-26T01:52:19.772Z,6.9
2022-12-26T01:53:28.155Z,6.9
2022-12-26T01:54:38.711Z,5.7
2022-12-26T01:55:45.068Z,5.7
2022-12-26T01:56:53.426Z,5.7
2022-12-26T01:58:02.024Z,5.2
2022-12-26T01:59:10.395Z,5.2
2022-12-26T02:00:18.733Z,5.2
2022-12-26T02:01:27.408Z,5.6
2022-12-26T02:02:35.786Z,5.6
2022-12-26T02:03:44.065Z,5.6
2022-12-26T02:04:52.628Z,5.6
2022-12-26T02:06:01.002Z,5.6
2022-12-26T02:07:09.411Z,5.6
2022-12-26T02:08:17.946Z,5.3
2022-12-26T02:09:26.321Z,5.3
2022-12-26T02:10:34.687Z,5.3
2022-12-26T02:11:43.279Z,5.4
2022-12-26T02:12:51.617Z,5.4
2022-12-26T02:14:00.004Z,5.4
2022-12-26T02:15:08.584Z,4.9
2022-12-26T02:16:16.960Z,4.9
2022-12-26T02:17:25.283Z,4.9
2022-12-26T02:18:33.827Z,4.7
2022-12-26T02:19:42.214Z,4.7
2022-12-26T02:20:50.565Z,4.7
2022-12-26T02:21:59.117Z,5.5
2022-12-26T02:23:07.461Z,5.5
2022-12-26T02:24:15.824Z,5.5
2022-12-26T02:25:24.402Z,5.8
2022-12-26T02:26:32.733Z,5.8
2022-12-26T02:27:41.091Z,5.8
2022-12-26T02:28:49.722Z,5.8
2022-12-26T02:29:58.058Z,5.8
2022-12-26T02:31:06.432Z,5.8
2022-12-26T02:32:15.058Z,4.6
2022-12-26T02:33:23.346Z,4.6
2022-12-26T02:34:31.685Z,4.6
2022-12-26T02:35:40.230Z,4.6
2022-12-26T02:36:48.589Z,4.6
2022-12-26T02:37:56.921Z,4.6
2022-12-26T02:39:43.058Z,6.7
2022-12-26T02:40:13.864Z,6.7
2022-12-26T02:41:22.229Z,6.7
2022-12-26T02:42:30.807Z,4.8
2022-12-26T02:43:39.162Z,4.8
2022-12-26T02:44:47.520Z,4.8
2022-12-26T02:45:56.096Z,5.2
2022-12-26T02:47:04.448Z,5.2
2022-12-26T02:48:12.778Z,5.2
2022-12-26T02:49:21.328Z,4.5
2022-12-26T02:50:29.664Z,4.5
2022-12-26T02:51:38.002Z,4.5
2022-12-26T02:52:46.547Z,4.7
2022-12-26T02:53:54.893Z,4.7
2022-12-26T02:55:03.248Z,4.7
2022-12-26T02:56:11.792Z,5.2
2022-12-26T02:57:20.160Z,5.2
2022-12-26T02:58:28.515Z,5.2
2022-12-26T02:59:54.707Z,4.1
2022-12-26T03:00:45.432Z,4.1
2022-12-26T03:01:53.924Z,4.1
2022-12-26T03:03:02.425Z,4.8
2022-12-26T03:04:10.710Z,4.8
2022-12-26T03:05:19.069Z,4.8
2022-12-26T03:06:27.620Z,4.8
2022-12-26T03:07:35.979Z,4.8
2022-12-26T03:08:44.338Z,4.8
2022-12-26T03:09:52.902Z,4.7
2022-12-26T03:11:01.253Z,4.7
2022-12-26T03:12:09.590Z,4.7
2022-12-26T03:13:18.128Z,5.6
2022-12-26T03:14:26.490Z,5.6
2022-12-26T03:15:34.837Z,5.6
2022-12-26T03:16:43.472Z,5.3
2022-12-26T03:17:51.795Z,5.3
2022-12-26T03:19:00.870Z,5.3
2022-12-26T03:20:08.715Z,8
2022-12-26T03:21:17.081Z,8
2022-12-26T03:22:25.439Z,8
2022-12-26T03:23:33.987Z,4.5
2022-12-26T03:24:42.339Z,4.5
2022-12-26T03:25:50.668Z,4.5
2022-12-26T03:26:59.214Z,4.7
2022-12-26T03:28:07.581Z,4.7
2022-12-26T03:29:18.960Z,4.7
2022-12-26T03:30:24.562Z,4.1
2022-12-26T03:31:32.844Z,4.1
2022-12-26T03:32:41.198Z,4.1
2022-12-26T03:33:49.794Z,4.9
2022-12-26T03:34:58.180Z,4.9
2022-12-26T03:36:06.503Z,4.9
2022-12-26T03:37:15.048Z,4.5
2022-12-26T03:38:23.391Z,4.5
2022-12-26T03:39:31.804Z,4.5
2022-12-26T03:40:40.364Z,5.5
2022-12-26T03:41:48.708Z,5.5
2022-12-26T03:42:57.044Z,5.5
2022-12-26T03:44:05.599Z,5.4
2022-12-26T03:45:13.985Z,5.4
2022-12-26T03:46:22.412Z,5.4
2022-12-26T03:47:30.876Z,4.1
2022-12-26T03:48:39.241Z,4.1
2022-12-26T03:49:47.632Z,4.1
2022-12-26T03:50:56.229Z,5.8
2022-12-26T03:52:04.591Z,5.8
2022-12-26T03:53:12.953Z,5.8
2022-12-26T03:54:21.510Z,5.2
2022-12-26T03:55:29.883Z,5.2
2022-12-26T03:56:38.218Z,5.2
2022-12-26T03:57:46.823Z,5.2
2022-12-26T03:58:55.186Z,5.2
2022-12-26T04:00:03.591Z,5.2
2022-12-26T04:01:12.205Z,7.4
2022-12-26T04:02:20.581Z,7.4
2022-12-26T04:03:28.871Z,7.4
2022-12-26T04:04:37.404Z,4.8
2022-12-26T04:05:45.755Z,4.8
2022-12-26T04:06:54.165Z,4.8
2022-12-26T04:08:02.678Z,5.2
2022-12-26T04:09:11.061Z,5.2
2022-12-26T04:10:19.434Z,5.2
2022-12-26T04:11:27.967Z,6
2022-12-26T04:12:36.355Z,6
2022-12-26T04:13:44.717Z,6
2022-12-26T04:14:53.268Z,5.5
2022-12-26T04:16:01.697Z,5.5
2022-12-26T04:17:09.977Z,5.5
2022-12-26T04:18:18.537Z,4.6
2022-12-26T04:19:26.915Z,4.6
2022-12-26T04:20:35.262Z,4.6
2022-12-26T04:21:43.803Z,6.1
2022-12-26T04:22:52.172Z,6.1
2022-12-26T04:24:00.521Z,6.1
2022-12-26T04:25:09.109Z,5.2
2022-12-26T04:26:17.494Z,5.2
2022-12-26T04:27:25.834Z,5.2
2022-12-26T04:28:34.380Z,5.9
2022-12-26T04:29:42.739Z,5.9
2022-12-26T04:30:51.105Z,5.9
2022-12-26T04:31:59.665Z,5.6
2022-12-26T04:33:08.026Z,5.6
2022-12-26T04:34:16.444Z,5.6
2022-12-26T04:35:24.984Z,5.7
2022-12-26T04:36:33.345Z,5.7
2022-12-26T04:37:41.737Z,5.7
2022-12-26T04:38:50.326Z,5.3
2022-12-26T04:39:58.631Z,5.3
2022-12-26T04:41:06.980Z,5.3
2022-12-26T04:42:15.540Z,7
2022-12-26T04:43:48.007Z,7
2022-12-26T04:44:32.252Z,7
2022-12-26T04:45:40.815Z,5.9
2022-12-26T04:46:49.162Z,5.9
2022-12-26T04:47:57.494Z,5.9
2022-12-26T04:49:06.070Z,5.4
2022-12-26T04:50:14.433Z,5.4
2022-12-26T04:51:22.752Z,5.4
2022-12-26T04:52:31.309Z,5.7
2022-12-26T04:53:39.636Z,5.7
2022-12-26T04:54:48.021Z,5.7
2022-12-26T04:55:56.556Z,7.6
2022-12-26T04:57:04.902Z,7.6
2022-12-26T04:58:13.249Z,7.6
2022-12-26T04:59:21.792Z,4.2
2022-12-26T05:00:30.171Z,4.2
2022-12-26T05:01:38.622Z,4.2
2022-12-26T05:02:47.131Z,5
2022-12-26T05:03:55.470Z,5
2022-12-26T05:05:03.806Z,5
2022-12-26T05:06:12.362Z,6.4
2022-12-26T05:07:20.716Z,6.4
2022-12-26T05:08:29.070Z,6.4
2022-12-26T05:09:37.652Z,4.2
2022-12-26T05:10:46.033Z,4.2
2022-12-26T05:11:54.348Z,4.2
2022-12-26T05:13:02.913Z,4.7
2022-12-26T05:14:11.258Z,4.7
2022-12-26T05:15:19.597Z,4.7
2022-12-26T05:16:28.217Z,4.8
2022-12-26T05:17:36.536Z,4.8
2022-12-26T05:18:44.882Z,4.8
2022-12-26T05:19:53.441Z,5.9
2022-12-26T05:21:01.790Z,5.9
2022-12-26T05:22:10.175Z,5.9
2022-12-26T05:23:18.744Z,4.3
2022-12-26T05:24:27.102Z,4.3
2022-12-26T05:25:35.454Z,4.3
2022-12-26T05:26:44.001Z,6
2022-12-26T05:27:52.350Z,6
2022-12-26T05:29:00.704Z,6
2022-12-26T05:30:09.256Z,6.1
2022-12-26T05:31:17.722Z,6.1
2022-12-26T05:32:25.965Z,6.1
2022-12-26T05:33:34.566Z,5
2022-12-26T05:34:42.910Z,5
2022-12-26T05:35:51.266Z,5
2022-12-26T05:36:59.823Z,6
2022-12-26T05:38:08.158Z,6
2022-12-26T05:39:16.522Z,6
2022-12-26T05:40:25.091Z,5.7
2022-12-26T05:41:33.455Z,5.7
2022-12-26T05:42:41.833Z,5.7
2022-12-26T05:43:50.362Z,4.9
2022-12-26T05:44:58.698Z,4.9
2022-12-26T05:46:07.090Z,4.9
2022-12-26T05:47:15.619Z,6.2
2022-12-26T05:48:23.976Z,6.2
2022-12-26T05:49:32.303Z,6.2
2022-12-26T05:50:40.862Z,6.6
2022-12-26T05:51:49.202Z,6.6
2022-12-26T05:52:57.562Z,6.6
2022-12-26T05:54:06.135Z,6.2
2022-12-26T05:55:14.452Z,6.2
2022-12-26T05:56:22.795Z,6.2
2022-12-26T05:57:31.355Z,4.6
2022-12-26T05:58:39.739Z,4.6
2022-12-26T05:59:48.069Z,4.6
2022-12-26T06:00:56.633Z,4.9
2022-12-26T06:02:05.204Z,4.9
2022-12-26T06:03:13.435Z,4.9
2022-12-26T06:04:21.913Z,5.9
2022-12-26T06:05:30.256Z,5.9
2022-12-26T06:06:38.616Z,5.9
2022-12-26T06:07:47.200Z,6.3
2022-12-26T06:08:55.552Z,6.3
2022-12-26T06:10:03.927Z,6.3
2022-12-26T06:11:12.483Z,3.7
2022-12-26T06:12:20.829Z,3.7
2022-12-26T06:13:29.182Z,3.7
2022-12-26T06:14:37.780Z,4.4
2022-12-26T06:15:46.106Z,4.4
2022-12-26T06:16:54.511Z,4.4
2022-12-26T06:18:03.024Z,4.4
2022-12-26T06:19:11.370Z,4.4
2022-12-26T06:20:19.723Z,4.4
2022-12-26T06:21:28.270Z,5
2022-12-26T06:22:36.616Z,5
2022-12-26T06:23:44.976Z,5
2022-12-26T06:24:53.552Z,6.8
2022-12-26T06:26:01.915Z,6.8
2022-12-26T06:27:10.253Z,6.8
2022-12-26T06:28:18.804Z,5.8
2022-12-26T06:29:27.213Z,5.8
2022-12-26T06:30:35.592Z,5.8
2022-12-26T06:31:44.186Z,5.3
2022-12-26T06:32:52.512Z,5.3
2022-12-26T06:34:00.865Z,5.3
2022-12-26T06:35:09.414Z,5.6
2022-12-26T06:36:17.768Z,5.6
2022-12-26T06:37:26.100Z,5.6
2022-12-26T06:38:34.667Z,4.7
2022-12-26T06:39:43.016Z,4.7
2022-12-26T06:40:51.360Z,4.7
2022-12-26T06:41:59.917Z,7.1
2022-12-26T06:43:08.262Z,7.1
2022-12-26T06:44:18.583Z,7.1
2022-12-26T06:45:25.200Z,5
2022-12-26T06:46:33.635Z,5
2022-12-26T06:47:41.986Z,5
2022-12-26T06:48:50.539Z,6.4
2022-12-26T06:49:58.878Z,6.4
2022-12-26T06:51:07.244Z,6.4
2022-12-26T06:52:15.817Z,4.8
2022-12-26T06:53:24.153Z,4.8
2022-12-26T06:54:32.551Z,4.8
2022-12-26T06:55:41.139Z,4.5
2022-12-26T06:56:49.499Z,4.5
2022-12-26T06:57:57.857Z,4.5
2022-12-26T06:59:06.435Z,6.4
2022-12-26T07:00:14.785Z,6.4
2022-12-26T07:01:23.229Z,6.4
2022-12-26T07:02:31.859Z,5.8
2022-12-26T07:03:44.952Z,5.8
2022-12-26T07:04:48.487Z,5.8
2022-12-26T07:05:57.080Z,6.3
2022-12-26T07:07:05.458Z,6.3
2022-12-26T07:08:13.787Z,6.3
2022-12-26T07:09:22.628Z,28.1
2022-12-26T07:10:30.736Z,28.1
2022-12-26T07:11:39.081Z,28.1
2022-12-26T07:12:47.644Z,12.7
2022-12-26T07:13:56.044Z,12.7
2022-12-26T07:15:04.375Z,12.7
2022-12-26T07:16:12.978Z,5.2
2022-12-26T07:17:21.281Z,5.2
2022-12-26T07:18:29.661Z,5.2
2022-12-26T07:19:38.206Z,12
2022-12-26T07:20:46.548Z,12
2022-12-26T07:21:54.886Z,12
2022-12-26T07:23:03.455Z,13.1
2022-12-26T07:24:11.809Z,13.1
2022-12-26T07:25:20.232Z,13.1
2022-12-26T07:26:28.774Z,50.799999
2022-12-26T07:27:37.120Z,50.799999
2022-12-26T07:28:45.495Z,50.799999
2022-12-26T07:29:54.052Z,7.2
2022-12-26T07:31:02.403Z,7.2
2022-12-26T07:32:10.787Z,7.2
2022-12-26T07:33:19.322Z,13.2
2022-12-26T07:34:31.322Z,13.2
2022-12-26T07:35:36.051Z,13.2
2022-12-26T07:36:44.630Z,5.5
2022-12-26T07:37:52.993Z,5.5
2022-12-26T07:39:01.356Z,5.5
2022-12-26T07:40:09.940Z,6.6
2022-12-26T07:41:18.293Z,6.6
2022-12-26T07:42:26.661Z,6.6
2022-12-26T07:43:35.232Z,9.3
2022-12-26T07:44:43.581Z,9.3
2022-12-26T07:45:51.978Z,9.3
2022-12-26T07:47:00.501Z,6.9
2022-12-26T07:48:08.915Z,6.9
2022-12-26T07:49:17.280Z,6.9
2022-12-26T07:50:25.979Z,6.2
2022-12-26T07:51:34.371Z,6.2
2022-12-26T07:52:42.716Z,6.2
2022-12-26T07:53:51.329Z,5.6
2022-12-26T07:54:59.740Z,5.6
2022-12-26T07:56:08.134Z,5.6
2022-12-26T07:57:46.597Z,5
2022-12-26T07:58:25.038Z,5
2022-12-26T07:59:33.428Z,5
2022-12-26T08:00:42.038Z,6.5
2022-12-26T08:01:50.512Z,6.5
2022-12-26T08:03:04.859Z,6.5
2022-12-26T08:04:07.346Z,4.3
2022-12-26T08:05:15.697Z,4.3
2022-12-26T08:06:24.066Z,4.3
2022-12-26T08:07:32.585Z,4.8
2022-12-26T08:08:44.091Z,4.8
2022-12-26T08:09:49.286Z,4.8
2022-12-26T08:10:57.856Z,4.3
2022-12-26T08:12:06.209Z,4.3
2022-12-26T08:13:14.539Z,4.3
2022-12-26T08:14:23.169Z,4.9
2022-12-26T08:15:31.560Z,4.9
2022-12-26T08:16:39.999Z,4.9
2022-12-26T08:17:48.560Z,5
2022-12-26T08:18:56.963Z,5
2022-12-26T08:20:05.276Z,5
2022-12-26T08:21:13.813Z,5.9
2022-12-26T08:22:22.196Z,5.9
2022-12-26T08:23:30.505Z,5.9
2022-12-26T08:24:39.058Z,4.1
2022-12-26T08:25:47.407Z,4.1
2022-12-26T08:26:55.743Z,4.1
2022-12-26T08:28:04.307Z,5
2022-12-26T08:29:12.658Z,5
2022-12-26T08:30:21.000Z,5
2022-12-26T08:31:29.644Z,4.4
2022-12-26T08:32:39.434Z,4.4
2022-12-26T08:33:46.323Z,4.4
2022-12-26T08:34:54.993Z,4.7
2022-12-26T08:36:03.350Z,4.7
2022-12-26T08:37:11.701Z,4.7
2022-12-26T08:38:20.274Z,4.7
2022-12-26T08:39:28.615Z,4.7
2022-12-26T08:40:44.580Z,4.7
2022-12-26T08:41:45.627Z,6.6
2022-12-26T08:43:11.923Z,6.6
2022-12-26T08:45:10.884Z,5.2
2022-12-26T08:46:20.015Z,5.2
2022-12-26T08:47:28.393Z,5.2
2022-12-26T08:48:36.961Z,5.2
2022-12-26T08:49:45.317Z,5.2
2022-12-26T08:50:53.673Z,5.2
2022-12-26T08:52:02.353Z,5
2022-12-26T08:53:10.667Z,5
2022-12-26T08:54:19.219Z,5
2022-12-26T08:55:27.778Z,4.9
2022-12-26T08:56:36.124Z,4.9
2022-12-26T08:57:44.481Z,4.9
2022-12-26T08:58:53.045Z,4.9
2022-12-26T09:00:01.452Z,4.9
2022-12-26T09:01:09.960Z,4.9
2022-12-26T09:02:18.537Z,5.8
2022-12-26T09:03:26.808Z,5.8
2022-12-26T09:04:35.150Z,5.8
2022-12-26T09:05:43.701Z,4.6
2022-12-26T09:06:52.046Z,4.6
2022-12-26T09:08:00.416Z,4.6
2022-12-26T09:09:09.019Z,4.3
2022-12-26T09:10:17.404Z,4.3
2022-12-26T09:11:25.711Z,4.3
2022-12-26T09:12:34.297Z,5.6
2022-12-26T09:13:42.640Z,5.6
2022-12-26T09:14:51.007Z,5.6
2022-12-26T09:15:59.591Z,3.4
2022-12-26T09:17:08.051Z,3.4
2022-12-26T09:18:16.339Z,3.4
2022-12-26T09:19:24.926Z,5
2022-12-26T09:20:33.249Z,5
2022-12-26T09:21:41.608Z,5
2022-12-26T09:22:50.191Z,7.1
2022-12-26T09:23:58.538Z,7.1
2022-12-26T09:25:06.919Z,7.1
2022-12-26T09:26:15.511Z,8.4
2022-12-26T09:27:23.862Z,8.4
2022-12-26T09:28:32.282Z,8.4
2022-12-26T09:29:40.872Z,5.4
2022-12-26T09:30:49.222Z,5.4
2022-12-26T09:31:57.584Z,5.4
2022-12-26T09:33:06.164Z,5.3
2022-12-26T09:34:14.532Z,5.3
2022-12-26T09:35:22.870Z,5.3
2022-12-26T09:36:31.495Z,5
2022-12-26T09:37:39.850Z,5
2022-12-26T09:38:48.199Z,5
2022-12-26T09:39:56.791Z,50.200001
2022-12-26T09:41:05.206Z,50.200001
2022-12-26T09:42:13.561Z,50.200001
2022-12-26T09:43:22.081Z,9.3
2022-12-26T09:44:30.444Z,9.3
2022-12-26T09:45:38.775Z,9.3
2022-12-26T09:46:47.314Z,20.6
2022-12-26T09:47:55.651Z,20.6
2022-12-26T09:49:03.988Z,20.6
2022-12-26T09:50:12.553Z,9.7
2022-12-26T09:51:20.861Z,9.7
2022-12-26T09:52:29.182Z,9.7
2022-12-26T09:53:37.725Z,9.4
2022-12-26T09:54:46.069Z,9.4
2022-12-26T09:55:54.395Z,9.4
2022-12-26T09:57:04.113Z,116.3
2022-12-26T09:58:11.303Z,116.3
2022-12-26T09:59:19.601Z,116.3
2022-12-26T10:00:28.148Z,14.2
2022-12-26T10:01:36.627Z,14.2
2022-12-26T10:02:44.832Z,14.2
2022-12-26T10:03:53.368Z,5.4
2022-12-26T10:05:01.708Z,5.4
2022-12-26T10:06:10.019Z,5.4
2022-12-26T10:07:18.560Z,7.4
2022-12-26T10:08:26.908Z,7.4
2022-12-26T10:09:35.273Z,7.4
2022-12-26T10:10:43.778Z,7.9
2022-12-26T10:11:52.143Z,7.9
2022-12-26T10:13:00.489Z,7.9
2022-12-26T10:14:09.061Z,36.900002
2022-12-26T10:15:17.343Z,36.900002
2022-12-26T10:16:25.686Z,36.900002
2022-12-26T10:17:34.185Z,6.7
2022-12-26T10:18:42.512Z,6.7
2022-12-26T10:19:50.844Z,6.7
2022-12-26T10:20:59.373Z,6.4
2022-12-26T10:22:07.701Z,6.4
2022-12-26T10:23:16.045Z,6.4
2022-12-26T10:24:24.616Z,10.5
2022-12-26T10:25:34.010Z,10.5
2022-12-26T10:26:41.294Z,10.5
2022-12-26T10:27:49.833Z,9.9
2022-12-26T10:28:58.164Z,9.9
2022-12-26T10:30:06.520Z,9.9
2022-12-26T10:31:15.086Z,5.1
2022-12-26T10:32:27.804Z,5.1
2022-12-26T10:33:31.682Z,5.1
2022-12-26T10:34:40.233Z,4.3
2022-12-26T10:35:48.563Z,4.3
2022-12-26T10:36:56.883Z,4.3
2022-12-26T10:38:05.432Z,4.8
2022-12-26T10:39:13.764Z,4.8
2022-12-26T10:40:22.135Z,4.8
2022-12-26T10:41:30.672Z,4.4
2022-12-26T10:42:39.004Z,4.4
2022-12-26T10:43:47.357Z,4.4
2022-12-26T10:44:55.903Z,5.5
2022-12-26T10:46:04.294Z,5.5
2022-12-26T10:47:12.603Z,5.5
2022-12-26T10:48:21.143Z,5
2022-12-26T10:49:29.484Z,5
2022-12-26T10:50:37.814Z,5
2022-12-26T10:51:46.352Z,5.2
2022-12-26T10:52:54.685Z,5.2
2022-12-26T10:54:03.047Z,5.2
2022-12-26T10:55:27.786Z,6.1
2022-12-26T10:56:19.911Z,6.1
2022-12-26T10:57:28.255Z,6.1
2022-12-26T10:58:36.806Z,4.7
2022-12-26T10:59:45.141Z,4.7
2022-12-26T11:00:53.482Z,4.7
2022-12-26T11:02:06.770Z,7.7
2022-12-26T11:03:10.475Z,7.7
2022-12-26T11:04:26.446Z,7.7
2022-12-26T11:05:48.737Z,7.6
2022-12-26T11:06:35.510Z,7.6
2022-12-26T11:07:43.837Z,7.6
2022-12-26T11:08:52.407Z,9.3
2022-12-26T11:10:00.743Z,9.3
2022-12-26T11:11:09.080Z,9.3
2022-12-26T11:12:17.622Z,5.1
2022-12-26T11:13:25.949Z,5.1
2022-12-26T11:14:34.717Z,5.1
2022-12-26T11:15:42.863Z,5.2
2022-12-26T11:16:51.147Z,5.2
2022-12-26T11:17:59.512Z,5.2
2022-12-26T11:19:08.005Z,4.4
2022-12-26T11:20:16.339Z,4.4
2022-12-26T11:21:24.686Z,4.4
2022-12-26T11:22:33.209Z,3.8
2022-12-26T11:23:41.531Z,3.8
2022-12-26T11:24:49.843Z,3.8
2022-12-26T11:25:58.378Z,4.1
2022-12-26T11:27:11.124Z,4.1
2022-12-26T11:28:15.040Z,4.1
2022-12-26T11:29:23.581Z,4.6
2022-12-26T11:30:31.916Z,4.6
2022-12-26T11:31:40.281Z,4.6
2022-12-26T11:32:48.790Z,3.6
2022-12-26T11:33:57.151Z,3.6
2022-12-26T11:35:05.464Z,3.6
2022-12-26T11:36:13.985Z,3.6
2022-12-26T11:37:22.308Z,3.6
2022-12-26T11:38:30.624Z,3.6
2022-12-26T11:39:39.179Z,4.6
2022-12-26T11:40:47.497Z,4.6
2022-12-26T11:41:55.816Z,4.6
2022-12-26T11:43:04.341Z,5.8
2022-12-26T11:44:12.672Z,5.8
2022-12-26T11:45:20.999Z,5.8
2022-12-26T11:46:29.571Z,4.8
2022-12-26T11:47:37.869Z,4.8
2022-12-26T11:48:46.198Z,4.8
2022-12-26T11:49:54.814Z,3.7
2022-12-26T11:51:03.038Z,3.7
2022-12-26T11:52:11.375Z,3.7
2022-12-26T11:53:19.895Z,4.6
2022-12-26T11:54:28.250Z,4.6
2022-12-26T11:55:36.553Z,4.6
2022-12-26T11:56:45.081Z,4.4
2022-12-26T11:57:56.898Z,4.4
2022-12-26T11:59:01.728Z,4.4
2022-12-26T12:00:10.244Z,3.6
2022-12-26T12:01:18.627Z,3.6
2022-12-26T12:02:26.900Z,3.6
2022-12-26T12:03:35.488Z,5.7
2022-12-26T12:04:43.775Z,5.7
2022-12-26T12:05:52.132Z,5.7
2022-12-26T12:07:00.642Z,4.6
2022-12-26T12:08:08.958Z,4.6
2022-12-26T12:09:17.301Z,4.6
2022-12-26T12:10:25.833Z,5
2022-12-26T12:11:34.151Z,5
2022-12-26T12:12:42.471Z,5
2022-12-26T12:13:51.005Z,5.8
2022-12-26T12:14:59.349Z,5.8
2022-12-26T12:16:07.725Z,5.8
2022-12-26T12:17:16.225Z,3.5
2022-12-26T12:18:24.551Z,3.5
2022-12-26T12:19:32.857Z,3.5
2022-12-26T12:20:41.398Z,3.6
2022-12-26T12:21:49.756Z,3.6
2022-12-26T12:22:58.059Z,3.6
2022-12-26T12:24:06.611Z,3.9
2022-12-26T12:25:14.933Z,3.9
2022-12-26T12:26:23.266Z,3.9
2022-12-26T12:27:31.779Z,3.3
2022-12-26T12:28:40.110Z,3.3
2022-12-26T12:29:48.433Z,3.3
2022-12-26T12:30:56.968Z,6
2022-12-26T12:32:05.332Z,6
2022-12-26T12:33:13.612Z,6
2022-12-26T12:34:22.170Z,3.5
2022-12-26T12:35:30.486Z,3.5
2022-12-26T12:36:38.804Z,3.5
2022-12-26T12:37:47.354Z,3.8
2022-12-26T12:38:56.635Z,3.8
2022-12-26T12:40:03.983Z,3.8
2022-12-26T12:41:12.503Z,3.8
2022-12-26T12:42:20.816Z,3.8
2022-12-26T12:43:29.149Z,3.8
2022-12-26T12:44:37.712Z,3.7
2022-12-26T12:45:46.059Z,3.7
2022-12-26T12:46:54.366Z,3.7
2022-12-26T12:48:02.902Z,3.7
2022-12-26T12:49:11.231Z,3.7
2022-12-26T12:50:19.555Z,3.7
2022-12-26T12:51:28.095Z,2.8
2022-12-26T12:52:36.405Z,2.8
2022-12-26T12:53:44.738Z,2.8
2022-12-26T12:54:53.258Z,2.7
2022-12-26T12:56:01.575Z,2.7
2022-12-26T12:57:09.905Z,2.7
2022-12-26T12:58:18.431Z,3.3
2022-12-26T12:59:26.774Z,3.3
2022-12-26T13:00:35.086Z,3.3
2022-12-26T13:01:43.694Z,3
2022-12-26T13:02:52.088Z,3
2022-12-26T13:04:00.283Z,3
2022-12-26T13:05:08.806Z,2.8
2022-12-26T13:06:17.130Z,2.8
2022-12-26T13:07:25.449Z,2.8
2022-12-26T13:08:33.993Z,4
2022-12-26T13:09:42.351Z,4
2022-12-26T13:10:50.643Z,4
2022-12-26T13:11:59.164Z,3.8
2022-12-26T13:13:07.503Z,3.8
2022-12-26T13:14:15.823Z,3.8
2022-12-26T13:15:24.360Z,4.1
2022-12-26T13:16:32.741Z,4.1
2022-12-26T13:17:40.992Z,4.1
2022-12-26T13:18:49.505Z,3.1
2022-12-26T13:20:01.698Z,3.1
2022-12-26T13:21:06.152Z,3.1
2022-12-26T13:22:14.690Z,3.3
2022-12-26T13:23:23.011Z,3.3
2022-12-26T13:24:31.345Z,3.3
2022-12-26T13:25:39.906Z,4
2022-12-26T13:26:48.192Z,4
2022-12-26T13:27:56.537Z,4
2022-12-26T13:29:05.058Z,3.7
2022-12-26T13:30:13.379Z,3.7
2022-12-26T13:31:21.751Z,3.7
2022-12-26T13:32:30.235Z,7.3
2022-12-26T13:33:38.561Z,7.3
2022-12-26T13:34:46.882Z,7.3
2022-12-26T13:35:55.434Z,5.4
2022-12-26T13:37:03.734Z,5.4
2022-12-26T13:38:12.065Z,5.4
2022-12-26T13:39:20.623Z,6.9
2022-12-26T13:40:28.957Z,6.9
2022-12-26T13:41:37.285Z,6.9
2022-12-26T13:42:45.798Z,7.4
2022-12-26T13:43:54.157Z,7.4
2022-12-26T13:45:02.527Z,7.4
2022-12-26T13:46:11.199Z,3.3
2022-12-26T13:47:19.309Z,3.3
2022-12-26T13:48:27.633Z,3.3
2022-12-26T13:49:36.215Z,4.8
2022-12-26T13:50:46.088Z,4.8
2022-12-26T13:51:52.818Z,4.8
2022-12-26T13:53:01.336Z,4.3
2022-12-26T13:54:09.677Z,4.3
2022-12-26T13:55:17.997Z,4.3
2022-12-26T13:56:26.516Z,5.4
2022-12-26T13:57:34.861Z,5.4
2022-12-26T13:58:43.155Z,5.4
2022-12-26T13:59:51.707Z,4.6
2022-12-26T14:01:00.047Z,4.6
2022-12-26T14:02:08.509Z,4.6
2022-12-26T14:03:18.934Z,5.2
2022-12-26T14:04:25.249Z,5.2
2022-12-26T14:05:33.551Z,5.2
2022-12-26T14:06:42.086Z,3
2022-12-26T14:07:50.408Z,3
2022-12-26T14:08:58.747Z,3
2022-12-26T14:10:07.273Z,1.9
2022-12-26T14:11:15.611Z,1.9
2022-12-26T14:12:23.923Z,1.9
2022-12-26T14:13:32.468Z,2.7
2022-12-26T14:14:41.345Z,2.7
2022-12-26T14:15:49.666Z,2.7
2022-12-26T14:16:58.245Z,2.4
2022-12-26T14:18:06.538Z,2.4
2022-12-26T14:19:14.891Z,2.4
2022-12-26T14:20:23.414Z,4.2
2022-12-26T14:21:31.723Z,4.2
2022-12-26T14:22:40.041Z,4.2
2022-12-26T14:23:48.568Z,9.4
2022-12-26T14:24:56.909Z,9.4
2022-12-26T14:26:05.218Z,9.4
2022-12-26T14:27:13.743Z,4.3
2022-12-26T14:28:22.079Z,4.3
2022-12-26T14:29:30.413Z,4.3
2022-12-26T15:03:07.368Z,0
2022-12-26T15:04:15.668Z,0
2022-12-26T15:05:34.595Z,0
2022-12-26T15:07:09.083Z,5.7
2022-12-26T15:08:17.849Z,5.7
2022-12-26T15:09:26.171Z,5.7
2022-12-26T15:10:34.709Z,3.6
2022-12-26T15:11:43.015Z,3.6
2022-12-26T15:12:58.414Z,3.6
2022-12-26T15:13:59.903Z,3.5
2022-12-26T15:15:08.306Z,3.5
2022-12-26T15:16:17.257Z,3.5
2022-12-26T15:17:25.785Z,30.799999
2022-12-26T15:18:37.795Z,30.799999
2022-12-26T15:19:42.604Z,30.799999
2022-12-26T15:20:51.150Z,3.2
2022-12-26T15:21:59.484Z,3.2
2022-12-26T15:23:07.905Z,3.2
2022-12-26T15:24:16.474Z,3.3
2022-12-26T15:25:24.828Z,3.3
2022-12-26T15:26:33.219Z,3.3
2022-12-26T15:27:41.757Z,6.5
2022-12-26T15:28:50.082Z,6.5
2022-12-26T15:29:58.428Z,6.5
2022-12-26T15:31:07.129Z,4.9
2022-12-26T15:32:15.442Z,4.9
2022-12-26T15:33:23.771Z,4.9
2022-12-26T15:34:32.387Z,15.5
2022-12-26T15:35:40.670Z,15.5
2022-12-26T15:36:49.045Z,15.5
2022-12-26T15:37:57.632Z,3.3
2022-12-26T15:39:05.977Z,3.3
2022-12-26T15:40:14.335Z,3.3
2022-12-26T15:41:22.910Z,5.6
2022-12-26T15:42:31.250Z,5.6
2022-12-26T15:43:39.627Z,5.6
2022-12-26T15:44:48.233Z,5.5
2022-12-26T15:45:56.583Z,5.5
2022-12-26T15:47:04.913Z,5.5
2022-12-26T15:48:13.484Z,3.9
2022-12-26T15:49:21.850Z,3.9
2022-12-26T15:50:30.215Z,3.9
2022-12-26T15:51:38.747Z,4.4
2022-12-26T15:52:47.099Z,4.4
2022-12-26T15:53:55.438Z,4.4
2022-12-26T15:55:03.991Z,24.4
2022-12-26T15:56:12.316Z,24.4
2022-12-26T15:57:20.656Z,24.4
2022-12-26T15:58:29.193Z,3.8
2022-12-26T15:59:37.530Z,3.8
2022-12-26T16:00:45.841Z,3.8
2022-12-26T16:01:54.684Z,5.6
2022-12-26T16:03:02.914Z,5.6
2022-12-26T16:04:11.394Z,5.6
2022-12-26T16:05:20.098Z,4.7
2022-12-26T16:06:28.494Z,4.7
2022-12-26T16:07:36.798Z,4.7
2022-12-26T16:08:45.372Z,4.5
2022-12-26T16:09:53.826Z,4.5
2022-12-26T16:11:02.657Z,4.5
2022-12-26T16:12:11.070Z,5.3
2022-12-26T16:13:19.410Z,5.3
2022-12-26T16:14:27.822Z,5.3
2022-12-26T16:15:36.681Z,3.7
2022-12-26T16:16:44.963Z,3.7
2022-12-26T16:17:53.324Z,3.7